createdAt,value
2019-04-16T00:00:02.315Z,25.00
2019-04-16T00:01:02.278Z,24.60
2019-04-16T00:02:02.333Z,25.90
2019-04-16T00:03:02.293Z,27.90
2019-04-16T00:04:02.306Z,26.00
2019-04-16T00:05:02.321Z,23.40
2019-04-16T00:06:02.304Z,25.20
2019-04-16T00:07:02.313Z,27.30
2019-04-16T00:08:02.318Z,29.90
2019-04-16T00:09:02.317Z,28.90
2019-04-16T00:10:02.305Z,28.70
2019-04-16T00:11:02.351Z,26.50
2019-04-16T00:12:02.304Z,27.90
2019-04-16T00:13:02.323Z,28.20
2019-04-16T00:14:03.486Z,30.80
2019-04-16T00:15:02.313Z,30.50
2019-04-16T00:16:02.322Z,28.60
2019-04-16T00:17:02.343Z,29.50
2019-04-16T00:18:02.337Z,26.40
2019-04-16T00:19:05.653Z,31.20
2019-04-16T00:20:05.663Z,32.00
2019-04-16T00:21:02.525Z,33.80
2019-04-16T00:22:02.340Z,31.80
2019-04-16T00:23:02.349Z,30.60
2019-04-16T00:24:02.314Z,30.10
2019-04-16T00:25:02.344Z,28.90
2019-04-16T00:26:02.303Z,26.70
2019-04-16T00:27:02.313Z,26.70
2019-04-16T00:28:02.317Z,27.70
2019-04-16T00:29:03.180Z,24.60
2019-04-16T00:30:04.862Z,22.10
2019-04-16T00:31:04.694Z,25.60
2019-04-16T00:32:02.350Z,27.10
2019-04-16T00:33:02.315Z,28.30
2019-04-16T00:34:02.328Z,24.60
2019-04-16T00:35:02.357Z,26.90
2019-04-16T00:36:02.345Z,24.90
2019-04-16T00:37:02.314Z,25.20
2019-04-16T00:38:02.369Z,29.40
2019-04-16T00:39:02.328Z,27.70
2019-04-16T00:40:02.332Z,29.00
2019-04-16T00:41:02.387Z,24.20
2019-04-16T00:42:02.339Z,22.50
2019-04-16T00:43:02.337Z,29.00
2019-04-16T00:44:02.332Z,24.60
2019-04-16T00:45:02.321Z,25.10
2019-04-16T00:46:02.322Z,29.60
2019-04-16T00:47:02.395Z,28.60
2019-04-16T00:48:02.334Z,29.00
2019-04-16T00:49:02.343Z,27.50
2019-04-16T00:50:02.340Z,26.50
2019-04-16T00:51:02.337Z,26.20
2019-04-16T00:52:05.898Z,27.60
2019-04-16T00:53:02.339Z,32.60
2019-04-16T00:54:02.332Z,32.00
2019-04-16T00:55:02.343Z,32.00
2019-04-16T00:56:02.338Z,39.70
2019-04-16T00:57:02.433Z,33.50
2019-04-16T00:58:02.349Z,32.90
2019-04-16T00:59:02.368Z,31.40
2019-04-16T01:00:02.337Z,34.00
2019-04-16T01:01:02.389Z,32.60
2019-04-16T01:02:02.496Z,29.50
2019-04-16T01:03:02.318Z,32.70
2019-04-16T01:04:03.064Z,31.00
2019-04-16T01:05:02.358Z,33.00
2019-04-16T01:06:07.034Z,38.40
2019-04-16T01:07:02.498Z,41.10
2019-04-16T01:08:02.321Z,36.00
2019-04-16T01:09:02.333Z,34.60
2019-04-16T01:10:02.343Z,30.30
2019-04-16T01:11:02.365Z,30.30
2019-04-16T01:12:02.337Z,33.50
2019-04-16T01:13:02.342Z,32.50
2019-04-16T01:14:02.351Z,33.20
2019-04-16T01:15:02.329Z,34.60
2019-04-16T01:16:03.746Z,32.90
2019-04-16T01:17:05.095Z,43.20
2019-04-16T01:18:04.618Z,36.40
2019-04-16T01:19:02.353Z,36.60
2019-04-16T01:20:02.349Z,38.90
2019-04-16T01:21:02.423Z,41.90
2019-04-16T01:22:02.372Z,36.40
2019-04-16T01:23:02.371Z,38.80
2019-04-16T01:24:02.351Z,37.30
2019-04-16T01:25:02.369Z,32.00
2019-04-16T01:26:02.362Z,30.80
2019-04-16T01:27:02.352Z,32.20
2019-04-16T01:28:02.355Z,33.10
2019-04-16T01:29:03.720Z,38.80
2019-04-16T01:30:04.888Z,35.80
2019-04-16T01:31:06.918Z,36.00
2019-04-16T01:32:02.432Z,37.90
2019-04-16T01:33:02.352Z,34.00
2019-04-16T01:34:02.372Z,31.70
2019-04-16T01:35:02.393Z,38.30
2019-04-16T01:36:02.367Z,37.40
2019-04-16T01:37:02.369Z,36.50
2019-04-16T01:38:02.369Z,36.20
2019-04-16T01:39:16.264Z,35.90
2019-04-16T01:40:02.361Z,36.30
2019-04-16T01:41:02.402Z,32.10
2019-04-16T01:42:02.366Z,30.10
2019-04-16T01:43:02.357Z,30.90
2019-04-16T01:44:02.405Z,34.20
2019-04-16T01:45:02.373Z,31.30
2019-04-16T01:46:02.811Z,30.10
2019-04-16T01:47:04.277Z,30.00
2019-04-16T01:48:06.679Z,34.50
2019-04-16T01:49:02.365Z,36.00
2019-04-16T01:50:02.413Z,36.90
2019-04-16T01:51:02.353Z,32.60
2019-04-16T01:52:02.377Z,35.20
2019-04-16T01:53:02.458Z,33.50
2019-04-16T01:54:02.596Z,36.70
2019-04-16T01:55:02.608Z,37.10
2019-04-16T01:56:02.601Z,41.20
2019-04-16T01:57:02.381Z,39.90
2019-04-16T01:58:03.641Z,41.40
2019-04-16T01:59:05.462Z,38.50
2019-04-16T02:00:06.747Z,40.00
2019-04-16T02:01:02.395Z,41.40
2019-04-16T02:02:02.379Z,38.70
2019-04-16T02:03:02.382Z,39.80
2019-04-16T02:04:02.389Z,41.60
2019-04-16T02:05:02.410Z,35.50
2019-04-16T02:06:02.398Z,37.00
2019-04-16T02:07:02.377Z,32.60
2019-04-16T02:08:02.393Z,32.40
2019-04-16T02:09:03.251Z,31.30
2019-04-16T02:10:06.448Z,32.40
2019-04-16T02:11:02.417Z,29.80
2019-04-16T02:12:02.380Z,34.30
2019-04-16T02:13:02.641Z,36.50
2019-04-16T02:14:02.622Z,32.40
2019-04-16T02:15:02.625Z,33.30
2019-04-16T02:16:02.404Z,32.90
2019-04-16T02:17:02.393Z,33.00
2019-04-16T02:18:02.404Z,42.60
2019-04-16T02:19:02.688Z,46.90
2019-04-16T02:20:06.202Z,46.50
2019-04-16T02:21:02.382Z,46.90
2019-04-16T02:22:02.386Z,46.00
2019-04-16T02:23:02.405Z,43.00
2019-04-16T02:24:02.399Z,41.80
2019-04-16T02:25:02.378Z,40.00
2019-04-16T02:26:02.439Z,42.50
2019-04-16T02:27:02.388Z,41.40
2019-04-16T02:28:02.410Z,45.70
2019-04-16T02:29:02.402Z,45.20
2019-04-16T02:30:04.653Z,40.20
2019-04-16T02:31:02.584Z,43.10
2019-04-16T02:32:02.403Z,40.40
2019-04-16T02:33:02.516Z,45.20
2019-04-16T02:34:02.630Z,41.60
2019-04-16T02:35:02.715Z,39.10
2019-04-16T02:36:02.659Z,42.50
2019-04-16T02:37:03.211Z,40.30
2019-04-16T02:38:02.708Z,40.40
2019-04-16T02:39:02.388Z,37.00
2019-04-16T02:40:02.542Z,36.10
2019-04-16T02:41:02.427Z,40.50
2019-04-16T02:42:02.779Z,42.30
2019-04-16T02:43:06.503Z,42.90
2019-04-16T02:44:02.789Z,42.10
2019-04-16T02:45:02.413Z,44.90
2019-04-16T02:46:02.413Z,41.40
2019-04-16T02:47:06.196Z,41.10
2019-04-16T02:48:02.422Z,37.90
2019-04-16T02:49:02.415Z,38.10
2019-04-16T02:50:02.429Z,38.20
2019-04-16T02:51:07.335Z,36.40
2019-04-16T02:52:02.425Z,37.30
2019-04-16T02:53:02.459Z,36.90
2019-04-16T02:54:02.438Z,38.40
2019-04-16T02:55:08.140Z,38.40
2019-04-16T02:56:02.448Z,39.80
2019-04-16T02:57:02.575Z,37.80
2019-04-16T02:58:02.557Z,41.10
2019-04-16T02:59:09.791Z,46.10
2019-04-16T03:00:02.431Z,45.50
2019-04-16T03:01:02.447Z,46.30
2019-04-16T03:02:02.459Z,45.40
2019-04-16T03:03:02.414Z,42.10
2019-04-16T03:04:02.417Z,43.50
2019-04-16T03:05:02.439Z,44.10
2019-04-16T03:06:02.427Z,53.10
2019-04-16T03:07:03.334Z,47.60
2019-04-16T03:08:04.608Z,44.90
2019-04-16T03:09:02.417Z,47.90
2019-04-16T03:10:02.821Z,44.60
2019-04-16T03:11:02.448Z,47.30
2019-04-16T03:12:02.442Z,42.10
2019-04-16T03:13:02.417Z,45.40
2019-04-16T03:14:02.422Z,44.30
2019-04-16T03:15:02.820Z,45.10
2019-04-16T03:16:05.689Z,39.40
2019-04-16T03:17:02.436Z,41.70
2019-04-16T03:18:02.566Z,40.40
2019-04-16T03:19:02.453Z,43.90
2019-04-16T03:20:02.423Z,44.40
2019-04-16T03:21:02.497Z,45.40
2019-04-16T03:22:03.303Z,45.40
2019-04-16T03:23:05.645Z,41.20
2019-04-16T03:24:02.708Z,38.90
2019-04-16T03:25:02.585Z,47.10
2019-04-16T03:26:02.703Z,40.80
2019-04-16T03:27:04.602Z,38.50
2019-04-16T03:28:02.625Z,36.90
2019-04-16T03:29:02.435Z,39.60
2019-04-16T03:30:03.459Z,38.60
2019-04-16T03:31:07.480Z,42.10
2019-04-16T03:32:02.424Z,44.30
2019-04-16T03:33:10.282Z,40.50
2019-04-16T03:34:02.487Z,39.80
2019-04-16T03:35:02.448Z,42.70
2019-04-16T03:36:02.477Z,40.70
2019-04-16T03:37:03.037Z,42.00
2019-04-16T03:38:05.067Z,39.10
2019-04-16T03:39:02.439Z,39.70
2019-04-16T03:40:15.108Z,42.70
2019-04-16T03:41:02.472Z,40.10
2019-04-16T03:42:02.459Z,39.10
2019-04-16T03:43:04.138Z,36.90
2019-04-16T03:44:04.212Z,38.00
2019-04-16T03:45:02.457Z,40.10
2019-04-16T03:46:02.430Z,36.80
2019-04-16T03:47:02.477Z,41.00
2019-04-16T03:48:02.448Z,44.00
2019-04-16T03:49:02.443Z,41.10
2019-04-16T03:50:02.458Z,47.20
2019-04-16T03:51:03.509Z,45.00
2019-04-16T03:52:04.823Z,40.90
2019-04-16T03:53:02.511Z,38.50
2019-04-16T03:54:04.900Z,42.30
2019-04-16T03:55:02.430Z,43.10
2019-04-16T03:56:02.470Z,38.50
2019-04-16T03:57:02.867Z,38.60
2019-04-16T03:58:05.178Z,39.60
2019-04-16T03:59:02.445Z,41.50
2019-04-16T04:00:02.691Z,37.80
2019-04-16T04:01:02.462Z,39.10
2019-04-16T04:02:02.447Z,38.70
2019-04-16T04:03:02.445Z,38.40
2019-04-16T04:04:02.463Z,44.30
2019-04-16T04:05:06.389Z,46.10
2019-04-16T04:06:03.508Z,43.70
2019-04-16T04:07:02.450Z,48.10
2019-04-16T04:08:02.459Z,48.90
2019-04-16T04:09:02.456Z,48.40
2019-04-16T04:10:02.469Z,45.60
2019-04-16T04:11:02.464Z,43.00
2019-04-16T04:12:02.460Z,44.80
2019-04-16T04:13:04.883Z,57.70
2019-04-16T04:14:02.488Z,56.10
2019-04-16T04:15:02.449Z,52.10
2019-04-16T04:16:02.465Z,59.80
2019-04-16T04:17:05.459Z,61.60
2019-04-16T04:18:02.506Z,65.20
2019-04-16T04:19:02.464Z,70.80
2019-04-16T04:20:02.496Z,70.10
2019-04-16T04:21:02.474Z,81.40
2019-04-16T04:22:02.472Z,72.20
2019-04-16T04:23:02.518Z,70.90
2019-04-16T04:24:02.773Z,64.50
2019-04-16T04:25:04.269Z,75.50
2019-04-16T04:26:02.463Z,67.90
2019-04-16T04:27:02.462Z,60.70
2019-04-16T04:28:02.468Z,53.70
2019-04-16T04:29:05.949Z,56.70
2019-04-16T04:30:02.472Z,51.50
2019-04-16T04:31:02.485Z,49.90
2019-04-16T04:32:03.387Z,51.40
2019-04-16T04:33:07.449Z,51.10
2019-04-16T04:34:02.487Z,53.30
2019-04-16T04:35:02.470Z,48.90
2019-04-16T04:36:02.470Z,48.60
2019-04-16T04:37:02.486Z,48.10
2019-04-16T04:38:04.083Z,51.20
2019-04-16T04:39:02.466Z,44.10
2019-04-16T04:40:02.459Z,49.70
2019-04-16T04:41:02.506Z,49.00
2019-04-16T04:42:02.478Z,51.00
2019-04-16T04:43:02.450Z,49.40
2019-04-16T04:44:04.355Z,48.10
2019-04-16T04:45:02.461Z,48.90
2019-04-16T04:46:02.486Z,47.20
2019-04-16T04:47:02.517Z,44.20
2019-04-16T04:48:02.495Z,44.70
2019-04-16T04:49:02.502Z,45.30
2019-04-16T04:50:03.442Z,41.60
2019-04-16T04:51:06.892Z,43.60
2019-04-16T04:52:02.469Z,43.90
2019-04-16T04:53:02.519Z,40.20
2019-04-16T04:54:02.497Z,33.90
2019-04-16T04:55:02.486Z,36.20
2019-04-16T04:56:02.466Z,39.30
2019-04-16T04:57:02.479Z,39.50
2019-04-16T04:58:03.332Z,37.60
2019-04-16T04:59:05.137Z,37.80
2019-04-16T05:00:02.481Z,33.80
2019-04-16T05:01:02.478Z,35.60
2019-04-16T05:02:02.483Z,32.90
2019-04-16T05:03:02.467Z,33.70
2019-04-16T05:04:02.488Z,34.30
2019-04-16T05:05:02.502Z,34.40
2019-04-16T05:06:02.465Z,34.10
2019-04-16T05:07:04.695Z,32.20
2019-04-16T05:08:02.487Z,39.90
2019-04-16T05:09:02.487Z,41.90
2019-04-16T05:10:04.618Z,44.40
2019-04-16T05:11:02.979Z,42.20
2019-04-16T05:12:02.478Z,42.10
2019-04-16T05:13:02.503Z,42.50
2019-04-16T05:14:02.503Z,41.90
2019-04-16T05:15:04.011Z,46.00
2019-04-16T05:16:02.801Z,42.10
2019-04-16T05:17:03.633Z,41.80
2019-04-16T05:18:05.564Z,42.50
2019-04-16T05:19:02.517Z,41.80
2019-04-16T05:20:02.492Z,44.10
2019-04-16T05:21:02.491Z,43.50
2019-04-16T05:22:02.501Z,46.60
2019-04-16T05:23:02.513Z,42.40
2019-04-16T05:24:02.506Z,44.90
2019-04-16T05:25:02.769Z,43.30
2019-04-16T05:26:04.698Z,43.60
2019-04-16T05:27:02.503Z,45.50
2019-04-16T05:28:02.512Z,43.30
2019-04-16T05:29:02.507Z,44.30
2019-04-16T05:30:02.505Z,41.80
2019-04-16T05:31:02.515Z,42.20
2019-04-16T05:32:02.532Z,39.60
2019-04-16T05:33:05.430Z,38.80
2019-04-16T05:34:02.575Z,40.60
2019-04-16T05:35:02.533Z,39.10
2019-04-16T05:36:02.526Z,36.00
2019-04-16T05:37:02.498Z,34.50
2019-04-16T05:38:02.532Z,38.10
2019-04-16T05:39:03.767Z,38.80
2019-04-16T05:40:02.518Z,38.80
2019-04-16T05:41:13.150Z,41.80
2019-04-16T05:42:02.526Z,39.70
2019-04-16T05:43:02.513Z,40.40
2019-04-16T05:44:02.503Z,37.40
2019-04-16T05:45:05.313Z,37.10
2019-04-16T05:46:02.524Z,35.40
2019-04-16T05:47:02.539Z,37.00
2019-04-16T05:48:02.524Z,38.10
2019-04-16T05:49:02.522Z,42.50
2019-04-16T05:50:02.498Z,40.20
2019-04-16T05:51:02.511Z,40.60
2019-04-16T05:52:03.826Z,42.60
2019-04-16T05:53:02.513Z,45.10
2019-04-16T05:54:02.522Z,39.30
2019-04-16T05:55:02.527Z,37.80
2019-04-16T05:56:02.541Z,41.90
2019-04-16T05:57:02.501Z,40.00
2019-04-16T05:58:02.519Z,43.40
2019-04-16T05:59:03.256Z,38.10
2019-04-16T06:00:03.373Z,35.90
2019-04-16T06:01:02.564Z,34.40
2019-04-16T06:02:02.540Z,31.50
2019-04-16T06:03:02.525Z,33.50
2019-04-16T06:04:02.519Z,42.20
2019-04-16T06:05:02.530Z,36.70
2019-04-16T06:06:02.559Z,35.50
2019-04-16T06:07:03.697Z,36.70
2019-04-16T06:08:02.533Z,34.70
2019-04-16T06:09:02.510Z,33.70
2019-04-16T06:10:02.513Z,36.40
2019-04-16T06:11:02.546Z,33.80
2019-04-16T06:12:02.533Z,36.40
2019-04-16T06:13:02.528Z,31.70
2019-04-16T06:14:02.548Z,31.60
2019-04-16T06:15:02.515Z,33.00
2019-04-16T06:16:02.520Z,35.70
2019-04-16T06:17:02.535Z,39.50
2019-04-16T06:18:05.337Z,31.60
2019-04-16T06:19:02.520Z,32.60
2019-04-16T06:20:02.533Z,31.00
2019-04-16T06:21:02.539Z,34.80
2019-04-16T06:22:02.558Z,30.90
2019-04-16T06:23:02.594Z,30.70
2019-04-16T06:24:03.521Z,29.60
2019-04-16T06:25:08.436Z,29.00
2019-04-16T06:26:02.584Z,35.00
2019-04-16T06:27:02.510Z,33.50
2019-04-16T06:28:02.546Z,33.10
2019-04-16T06:29:02.564Z,32.50
2019-04-16T06:30:02.540Z,29.70
2019-04-16T06:31:05.291Z,32.80
2019-04-16T06:32:02.559Z,29.40
2019-04-16T06:33:02.528Z,34.60
2019-04-16T06:34:02.537Z,30.60
2019-04-16T06:35:02.581Z,30.20
2019-04-16T06:36:02.567Z,30.20
2019-04-16T06:37:02.531Z,31.50
2019-04-16T06:38:02.538Z,31.70
2019-04-16T06:39:02.522Z,31.30
2019-04-16T06:40:02.549Z,30.70
2019-04-16T06:41:03.329Z,31.10
2019-04-16T06:42:02.547Z,27.90
2019-04-16T06:43:02.860Z,31.20
2019-04-16T06:44:04.206Z,29.70
2019-04-16T06:45:04.952Z,30.80
2019-04-16T06:46:02.555Z,27.60
2019-04-16T06:47:02.574Z,31.90
2019-04-16T06:48:02.542Z,31.80
2019-04-16T06:49:02.537Z,31.00
2019-04-16T06:50:02.555Z,29.90
2019-04-16T06:51:02.551Z,30.90
2019-04-16T06:52:02.558Z,30.10
2019-04-16T06:53:02.596Z,29.10
2019-04-16T06:54:02.557Z,29.80
2019-04-16T06:55:03.575Z,31.30
2019-04-16T06:56:05.645Z,28.20
2019-04-16T06:57:02.541Z,27.70
2019-04-16T06:58:02.569Z,27.70
2019-04-16T06:59:02.587Z,28.60
2019-04-16T07:00:03.128Z,25.00
2019-04-16T07:01:05.888Z,25.90
2019-04-16T07:02:02.563Z,27.20
2019-04-16T07:03:03.029Z,27.40
2019-04-16T07:04:02.556Z,29.10
2019-04-16T07:05:02.575Z,29.40
2019-04-16T07:06:03.907Z,25.10
2019-04-16T07:07:07.842Z,29.70
2019-04-16T07:08:02.596Z,30.00
2019-04-16T07:09:02.540Z,25.60
2019-04-16T07:10:02.551Z,27.10
2019-04-16T07:11:02.576Z,26.60
2019-04-16T07:12:02.565Z,24.40
2019-04-16T07:13:02.548Z,23.30
2019-04-16T07:14:02.562Z,24.80
2019-04-16T07:15:02.546Z,24.80
2019-04-16T07:16:02.577Z,25.00
2019-04-16T07:17:02.605Z,24.60
2019-04-16T07:18:05.308Z,26.90
2019-04-16T07:19:02.566Z,22.70
2019-04-16T07:20:04.618Z,23.40
2019-04-16T07:21:02.555Z,27.60
2019-04-16T07:22:02.582Z,25.90
2019-04-16T07:23:02.569Z,26.30
2019-04-16T07:24:02.622Z,26.20
2019-04-16T07:25:04.490Z,28.30
2019-04-16T07:26:03.861Z,27.70
2019-04-16T07:27:02.564Z,25.40
2019-04-16T07:28:02.581Z,26.60
2019-04-16T07:29:02.609Z,27.70
2019-04-16T07:30:06.762Z,28.90
2019-04-16T07:31:02.859Z,26.20
2019-04-16T07:32:03.050Z,25.70
2019-04-16T07:33:02.587Z,24.80
2019-04-16T07:34:02.584Z,27.10
2019-04-16T07:35:02.587Z,25.00
2019-04-16T07:36:02.595Z,23.30
2019-04-16T07:37:02.591Z,27.60
2019-04-16T07:38:05.773Z,25.70
2019-04-16T07:39:05.363Z,22.70
2019-04-16T07:40:02.600Z,24.30
2019-04-16T07:41:02.620Z,22.70
2019-04-16T07:42:10.554Z,23.90
2019-04-16T07:43:02.580Z,25.00
2019-04-16T07:44:08.148Z,23.80
2019-04-16T07:45:02.589Z,23.80
2019-04-16T07:46:02.621Z,22.60
2019-04-16T07:47:02.593Z,24.60
2019-04-16T07:48:05.903Z,24.40
2019-04-16T07:49:02.589Z,23.70
2019-04-16T07:50:02.620Z,24.00
2019-04-16T07:51:04.850Z,25.20
2019-04-16T07:52:06.959Z,29.20
2019-04-16T07:53:02.639Z,24.20
2019-04-16T07:54:03.169Z,24.40
2019-04-16T07:55:02.614Z,21.90
2019-04-16T07:56:02.584Z,24.60
2019-04-16T07:57:02.594Z,24.00
2019-04-16T07:58:02.773Z,23.30
2019-04-16T07:59:02.695Z,23.80
2019-04-16T08:00:02.608Z,21.90
2019-04-16T08:01:02.603Z,23.40
2019-04-16T08:02:02.625Z,25.70
2019-04-16T08:03:02.699Z,22.20
2019-04-16T08:04:03.261Z,23.40
2019-04-16T08:05:07.754Z,21.90
2019-04-16T08:06:02.613Z,22.40
2019-04-16T08:07:02.598Z,23.90
2019-04-16T08:08:02.857Z,20.80
2019-04-16T08:09:02.587Z,27.40
2019-04-16T08:10:03.321Z,22.60
2019-04-16T08:11:02.644Z,23.80
2019-04-16T08:12:02.696Z,24.90
2019-04-16T08:13:02.612Z,22.80
2019-04-16T08:14:02.790Z,25.50
2019-04-16T08:15:13.371Z,23.40
2019-04-16T08:16:02.618Z,21.80
2019-04-16T08:17:02.641Z,22.90
2019-04-16T08:18:02.801Z,23.10
2019-04-16T08:19:02.620Z,22.20
2019-04-16T08:20:02.665Z,22.20
2019-04-16T08:21:10.120Z,20.60
2019-04-16T08:22:02.617Z,19.70
2019-04-16T08:23:02.638Z,21.90
2019-04-16T08:24:02.626Z,25.30
2019-04-16T08:25:03.917Z,26.00
2019-04-16T08:26:04.336Z,22.10
2019-04-16T08:27:02.611Z,21.40
2019-04-16T08:28:02.621Z,24.90
2019-04-16T08:29:02.646Z,23.40
2019-04-16T08:30:04.134Z,20.50
2019-04-16T08:31:02.617Z,21.30
2019-04-16T08:32:02.634Z,21.40
2019-04-16T08:33:02.628Z,21.10
2019-04-16T08:34:02.632Z,21.10
2019-04-16T08:35:02.678Z,25.90
2019-04-16T08:36:02.625Z,21.00
2019-04-16T08:37:02.633Z,21.80
2019-04-16T08:38:02.623Z,20.60
2019-04-16T08:39:05.911Z,22.80
2019-04-16T08:40:02.633Z,24.50
2019-04-16T08:41:02.916Z,24.30
2019-04-16T08:42:02.650Z,23.50
2019-04-16T08:43:02.667Z,24.10
2019-04-16T08:44:03.815Z,23.50
2019-04-16T08:45:07.604Z,23.00
2019-04-16T08:46:02.652Z,24.60
2019-04-16T08:47:03.036Z,22.10
2019-04-16T08:48:02.672Z,22.90
2019-04-16T08:49:02.645Z,20.10
2019-04-16T08:50:02.668Z,22.00
2019-04-16T08:51:04.747Z,22.40
2019-04-16T08:52:02.829Z,24.70
2019-04-16T08:53:02.699Z,28.40
2019-04-16T08:54:02.654Z,24.30
2019-04-16T08:55:02.658Z,23.60
2019-04-16T08:56:02.640Z,24.00
2019-04-16T08:57:02.763Z,24.90
2019-04-16T08:58:06.055Z,25.10
2019-04-16T08:59:02.701Z,23.70
2019-04-16T09:00:02.652Z,25.60
2019-04-16T09:01:02.743Z,22.20
2019-04-16T09:02:02.668Z,23.30
2019-04-16T09:03:02.642Z,23.70
2019-04-16T09:04:03.087Z,23.20
2019-04-16T09:05:05.979Z,23.80
2019-04-16T09:06:04.298Z,26.20
2019-04-16T09:07:11.123Z,23.60
2019-04-16T09:08:12.144Z,24.20
2019-04-16T09:09:12.720Z,24.80
2019-04-16T09:10:16.168Z,25.60
2019-04-16T09:11:03.346Z,25.50
2019-04-16T09:12:07.999Z,27.40
2019-04-16T09:13:04.609Z,25.80
2019-04-16T09:14:02.677Z,24.90
2019-04-16T09:15:02.667Z,23.80
2019-04-16T09:16:02.656Z,22.50
2019-04-16T09:17:02.680Z,23.50
2019-04-16T09:18:02.676Z,21.30
2019-04-16T09:19:02.684Z,24.60
2019-04-16T09:20:05.148Z,25.40
2019-04-16T09:21:02.662Z,23.10
2019-04-16T09:22:02.666Z,22.90
2019-04-16T09:23:02.692Z,21.30
2019-04-16T09:24:08.567Z,22.00
2019-04-16T09:25:02.682Z,23.80
2019-04-16T09:26:13.616Z,24.90
2019-04-16T09:27:02.658Z,22.40
2019-04-16T09:28:02.690Z,24.20
2019-04-16T09:29:08.515Z,24.20
2019-04-16T09:30:02.683Z,23.90
2019-04-16T09:31:02.719Z,22.20
2019-04-16T09:32:02.696Z,20.70
2019-04-16T09:33:02.673Z,22.90
2019-04-16T09:34:05.754Z,22.20
2019-04-16T09:35:10.084Z,24.30
2019-04-16T09:36:02.676Z,22.10
2019-04-16T09:37:02.701Z,21.30
2019-04-16T09:38:02.697Z,19.70
2019-04-16T09:39:02.663Z,20.90
2019-04-16T09:40:15.592Z,20.00
2019-04-16T09:41:02.746Z,19.90
2019-04-16T09:42:02.773Z,19.10
2019-04-16T09:43:15.803Z,20.30
2019-04-16T09:44:02.738Z,17.20
2019-04-16T09:45:05.060Z,17.70
2019-04-16T09:46:10.381Z,20.30
2019-04-16T09:47:05.210Z,18.30
2019-04-16T09:48:03.773Z,19.60
2019-04-16T09:49:04.733Z,19.10
2019-04-16T09:50:02.687Z,19.00
2019-04-16T09:51:02.687Z,17.60
2019-04-16T09:52:03.950Z,17.80
2019-04-16T09:53:03.090Z,19.40
2019-04-16T09:54:02.695Z,17.90
2019-04-16T09:55:02.711Z,18.20
2019-04-16T09:56:02.741Z,18.30
2019-04-16T09:57:02.721Z,20.60
2019-04-16T09:58:06.066Z,20.10
2019-04-16T09:59:02.772Z,17.70
2019-04-16T10:00:02.689Z,18.80
2019-04-16T10:01:02.692Z,16.00
2019-04-16T10:02:02.746Z,20.90
2019-04-16T10:03:02.695Z,17.60
2019-04-16T10:04:02.719Z,17.50
2019-04-16T10:05:02.716Z,17.10
2019-04-16T10:06:05.279Z,17.80
2019-04-16T10:07:02.737Z,19.70
2019-04-16T10:08:02.761Z,17.50
2019-04-16T10:09:02.702Z,18.80
2019-04-16T10:10:02.728Z,17.80
2019-04-16T10:11:05.770Z,16.60
2019-04-16T10:12:05.036Z,17.90
2019-04-16T10:13:02.737Z,17.30
2019-04-16T10:14:02.741Z,19.60
2019-04-16T10:15:02.756Z,18.70
2019-04-16T10:16:02.756Z,19.10
2019-04-16T10:17:02.775Z,19.40
2019-04-16T10:18:02.715Z,17.40
2019-04-16T10:19:07.897Z,18.00
2019-04-16T10:20:02.758Z,17.60
2019-04-16T10:21:02.732Z,19.30
2019-04-16T10:22:02.734Z,16.80
2019-04-16T10:23:02.781Z,18.00
2019-04-16T10:24:02.731Z,16.50
2019-04-16T10:25:02.749Z,17.60
2019-04-16T10:26:02.773Z,17.20
2019-04-16T10:27:04.361Z,17.90
2019-04-16T10:28:04.960Z,18.10
2019-04-16T10:29:05.817Z,18.30
2019-04-16T10:30:02.727Z,21.20
2019-04-16T10:31:02.739Z,18.90
2019-04-16T10:32:02.788Z,17.20
2019-04-16T10:33:02.718Z,17.60
2019-04-16T10:34:02.786Z,19.90
2019-04-16T10:35:02.755Z,17.40
2019-04-16T10:36:04.807Z,17.00
2019-04-16T10:37:02.750Z,18.80
2019-04-16T10:38:02.772Z,16.80
2019-04-16T10:39:02.766Z,19.30
2019-04-16T10:40:04.893Z,17.70
2019-04-16T10:41:02.804Z,17.70
2019-04-16T10:42:02.725Z,17.00
2019-04-16T10:43:02.769Z,16.90
2019-04-16T10:44:02.747Z,18.50
2019-04-16T10:45:02.770Z,18.00
2019-04-16T10:46:02.818Z,19.20
2019-04-16T10:47:02.770Z,20.80
2019-04-16T10:48:02.756Z,19.50
2019-04-16T10:49:02.715Z,20.20
2019-04-16T10:50:02.787Z,19.50
2019-04-16T10:51:02.732Z,18.70
2019-04-16T10:52:02.787Z,17.90
2019-04-16T10:53:02.813Z,18.40
2019-04-16T10:54:02.737Z,18.00
2019-04-16T10:55:02.795Z,18.10
2019-04-16T10:56:02.798Z,19.80
2019-04-16T10:57:02.783Z,17.50
2019-04-16T10:58:02.775Z,19.70
2019-04-16T10:59:02.820Z,17.30
2019-04-16T11:00:02.749Z,18.40
2019-04-16T11:01:02.775Z,19.00
2019-04-16T11:02:02.869Z,19.90
2019-04-16T11:03:02.760Z,17.00
2019-04-16T11:04:04.833Z,17.50
2019-04-16T11:05:03.236Z,18.90
2019-04-16T11:06:02.767Z,17.70
2019-04-16T11:07:02.798Z,17.90
2019-04-16T11:08:04.345Z,19.90
2019-04-16T11:09:02.770Z,19.20
2019-04-16T11:10:02.803Z,19.30
2019-04-16T11:11:02.876Z,18.40
2019-04-16T11:12:05.405Z,18.50
2019-04-16T11:13:02.785Z,19.50
2019-04-16T11:14:02.811Z,18.20
2019-04-16T11:15:02.780Z,17.10
2019-04-16T11:16:02.791Z,19.40
2019-04-16T11:17:02.827Z,16.20
2019-04-16T11:18:02.788Z,18.90
2019-04-16T11:19:02.963Z,16.70
2019-04-16T11:20:03.179Z,16.00
2019-04-16T11:21:02.960Z,14.80
2019-04-16T11:22:03.914Z,15.40
2019-04-16T11:23:03.289Z,15.10
2019-04-16T11:24:03.087Z,15.80
2019-04-16T11:25:03.087Z,17.00
2019-04-16T11:26:02.775Z,16.90
2019-04-16T11:27:02.782Z,15.50
2019-04-16T11:28:02.814Z,17.10
2019-04-16T11:29:02.880Z,16.60
2019-04-16T11:30:02.899Z,16.40
2019-04-16T11:31:03.062Z,17.20
2019-04-16T11:32:03.031Z,16.50
2019-04-16T11:33:03.116Z,17.40
2019-04-16T11:34:03.001Z,16.10
2019-04-16T11:35:03.040Z,17.60
2019-04-16T11:36:17.415Z,18.50
2019-04-16T11:37:07.412Z,17.40
2019-04-16T11:38:03.010Z,16.70
2019-04-16T11:39:02.835Z,15.80
2019-04-16T11:40:03.188Z,17.60
2019-04-16T11:41:02.810Z,17.90
2019-04-16T11:42:02.793Z,17.10
2019-04-16T11:43:03.154Z,16.20
2019-04-16T11:44:14.264Z,16.80
2019-04-16T11:45:02.810Z,15.80
2019-04-16T11:46:03.055Z,15.50
2019-04-16T11:47:02.872Z,15.60
2019-04-16T11:48:03.013Z,15.10
2019-04-16T11:49:03.278Z,17.40
2019-04-16T11:50:02.838Z,17.70
2019-04-16T11:51:02.815Z,15.70
2019-04-16T11:52:02.927Z,17.20
2019-04-16T11:53:03.102Z,19.50
2019-04-16T11:54:03.091Z,17.40
2019-04-16T11:55:02.895Z,18.60
2019-04-16T11:56:02.902Z,17.10
2019-04-16T11:57:03.000Z,17.70
2019-04-16T11:58:02.837Z,14.90
2019-04-16T11:59:02.857Z,14.40
2019-04-16T12:00:07.714Z,15.50
2019-04-16T12:01:02.848Z,18.30
2019-04-16T12:02:02.927Z,17.30
2019-04-16T12:03:02.843Z,17.50
2019-04-16T12:04:02.872Z,17.90
2019-04-16T12:05:02.851Z,17.70
2019-04-16T12:06:02.830Z,16.10
2019-04-16T12:07:05.624Z,16.30
2019-04-16T12:08:02.871Z,17.40
2019-04-16T12:09:02.874Z,16.10
2019-04-16T12:10:02.857Z,15.50
2019-04-16T12:11:02.870Z,17.70
2019-04-16T12:12:02.845Z,17.40
2019-04-16T12:13:03.965Z,15.80
2019-04-16T12:14:04.224Z,17.20
2019-04-16T12:15:02.831Z,16.10
2019-04-16T12:16:02.868Z,16.10
2019-04-16T12:17:02.855Z,17.10
2019-04-16T12:18:02.833Z,16.70
2019-04-16T12:19:02.878Z,15.00
2019-04-16T12:20:02.946Z,17.20
2019-04-16T12:21:02.879Z,15.30
2019-04-16T12:22:02.885Z,14.20
2019-04-16T12:23:02.890Z,16.40
2019-04-16T12:24:02.890Z,15.60
2019-04-16T12:25:02.839Z,16.40
2019-04-16T12:26:02.853Z,15.70
2019-04-16T12:27:03.102Z,15.90
2019-04-16T12:28:06.525Z,15.70
2019-04-16T12:29:02.895Z,15.30
2019-04-16T12:30:02.881Z,15.50
2019-04-16T12:31:02.844Z,18.90
2019-04-16T12:32:04.338Z,15.00
2019-04-16T12:33:07.721Z,15.20
2019-04-16T12:34:02.896Z,14.50
2019-04-16T12:35:02.881Z,15.20
2019-04-16T12:36:02.928Z,14.10
2019-04-16T12:37:02.891Z,15.20
2019-04-16T12:38:02.872Z,15.00
2019-04-16T12:39:03.014Z,15.50
2019-04-16T12:40:02.932Z,16.20
2019-04-16T12:41:02.873Z,14.10
2019-04-16T12:42:02.879Z,15.90
2019-04-16T12:43:02.873Z,16.70
2019-04-16T12:44:02.924Z,16.20
2019-04-16T12:45:02.855Z,15.00
2019-04-16T12:46:02.885Z,15.20
2019-04-16T12:47:02.920Z,15.50
2019-04-16T12:48:02.903Z,15.10
2019-04-16T12:49:02.880Z,15.70
2019-04-16T12:50:02.926Z,15.10
2019-04-16T12:51:02.858Z,13.00
2019-04-16T12:52:03.152Z,12.70